sensor_id;sensor_type;location;lat;lon;timestamp;P1;durP1;ratioP1;P2;durP2;ratioP2
79212;SDS011;68639;52.380;9.822;2023-09-12T00:00:04;21.20;;;10.98;;
79212;SDS011;68639;52.380;9.822;2023-09-12T00:02:30;16.38;;;10.65;;
79212;SDS011;68639;52.380;9.822;2023-09-12T00:04:55;21.23;;;11.23;;
79212;SDS011;68639;52.380;9.822;2023-09-12T00:07:20;20.03;;;11.53;;
79212;SDS011;68639;52.380;9.822;2023-09-12T00:09:46;20.10;;;11.23;;
79212;SDS011;68639;52.380;9.822;2023-09-12T00:12:13;23.40;;;11.63;;
79212;SDS011;68639;52.380;9.822;2023-09-12T00:14:38;18.75;;;11.00;;
79212;SDS011;68639;52.380;9.822;2023-09-12T00:17:03;21.63;;;11.87;;
79212;SDS011;68639;52.380;9.822;2023-09-12T00:19:29;17.53;;;10.53;;
79212;SDS011;68639;52.380;9.822;2023-09-12T00:21:54;22.43;;;12.87;;
79212;SDS011;68639;52.380;9.822;2023-09-12T00:24:19;24.80;;;13.10;;
79212;SDS011;68639;52.380;9.822;2023-09-12T00:26:44;26.03;;;12.43;;
79212;SDS011;68639;52.380;9.822;2023-09-12T00:29:09;17.70;;;12.60;;
79212;SDS011;68639;52.380;9.822;2023-09-12T00:31:34;19.80;;;12.90;;
79212;SDS011;68639;52.380;9.822;2023-09-12T00:34:00;21.23;;;12.45;;
79212;SDS011;68639;52.380;9.822;2023-09-12T00:36:25;21.67;;;12.43;;
79212;SDS011;68639;52.380;9.822;2023-09-12T00:38:50;24.88;;;12.57;;
79212;SDS011;68639;52.380;9.822;2023-09-12T00:41:15;26.53;;;14.00;;
79212;SDS011;68639;52.380;9.822;2023-09-12T00:43:40;21.92;;;13.65;;
79212;SDS011;68639;52.380;9.822;2023-09-12T00:46:05;26.67;;;15.00;;
79212;SDS011;68639;52.380;9.822;2023-09-12T00:48:31;24.73;;;13.43;;
79212;SDS011;68639;52.380;9.822;2023-09-12T00:50:56;21.73;;;14.27;;
79212;SDS011;68639;52.380;9.822;2023-09-12T00:53:22;21.97;;;14.77;;
79212;SDS011;68639;52.380;9.822;2023-09-12T00:55:50;18.90;;;13.38;;
79212;SDS011;68639;52.380;9.822;2023-09-12T00:58:16;26.45;;;14.77;;
79212;SDS011;68639;52.380;9.822;2023-09-12T01:00:41;23.17;;;13.77;;
79212;SDS011;68639;52.380;9.822;2023-09-12T01:03:07;25.55;;;14.63;;
79212;SDS011;68639;52.380;9.822;2023-09-12T02:03:22;32.00;;;14.40;;
79212;SDS011;68639;52.380;9.822;2023-09-12T02:05:48;23.60;;;14.87;;
79212;SDS011;68639;52.380;9.822;2023-09-12T02:08:13;18.52;;;14.90;;
79212;SDS011;68639;52.380;9.822;2023-09-12T02:10:38;20.70;;;14.07;;
79212;SDS011;68639;52.380;9.822;2023-09-12T02:13:03;21.55;;;13.18;;
79212;SDS011;68639;52.380;9.822;2023-09-12T02:15:28;26.73;;;14.77;;
79212;SDS011;68639;52.380;9.822;2023-09-12T02:17:54;24.15;;;14.57;;
79212;SDS011;68639;52.380;9.822;2023-09-12T02:20:19;22.77;;;13.60;;
79212;SDS011;68639;52.380;9.822;2023-09-12T02:22:44;25.55;;;13.98;;
79212;SDS011;68639;52.380;9.822;2023-09-12T02:25:10;20.80;;;14.90;;
79212;SDS011;68639;52.380;9.822;2023-09-12T02:27:35;23.70;;;14.23;;
79212;SDS011;68639;52.380;9.822;2023-09-12T02:30:00;25.15;;;15.02;;
79212;SDS011;68639;52.380;9.822;2023-09-12T02:32:25;20.92;;;14.93;;
79212;SDS011;68639;52.380;9.822;2023-09-12T02:34:51;22.52;;;15.10;;
79212;SDS011;68639;52.380;9.822;2023-09-12T02:37:18;27.75;;;16.23;;
79212;SDS011;68639;52.380;9.822;2023-09-12T02:39:43;24.38;;;15.88;;
79212;SDS011;68639;52.380;9.822;2023-09-12T02:42:08;24.47;;;16.30;;
79212;SDS011;68639;52.380;9.822;2023-09-12T02:44:33;23.30;;;16.77;;
79212;SDS011;68639;52.380;9.822;2023-09-12T02:46:58;29.20;;;19.53;;
79212;SDS011;68639;52.380;9.822;2023-09-12T02:49:24;29.37;;;19.30;;
79212;SDS011;68639;52.380;9.822;2023-09-12T02:51:49;31.23;;;20.40;;
79212;SDS011;68639;52.380;9.822;2023-09-12T02:54:14;29.80;;;19.37;;
79212;SDS011;68639;52.380;9.822;2023-09-12T02:56:39;30.37;;;19.43;;
79212;SDS011;68639;52.380;9.822;2023-09-12T02:59:04;24.02;;;18.40;;
79212;SDS011;68639;52.380;9.822;2023-09-12T03:01:30;24.50;;;18.95;;
79212;SDS011;68639;52.380;9.822;2023-09-12T03:03:55;29.98;;;19.02;;
79212;SDS011;68639;52.380;9.822;2023-09-12T03:06:20;29.30;;;20.10;;
79212;SDS011;68639;52.380;9.822;2023-09-12T03:08:46;30.58;;;20.63;;
79212;SDS011;68639;52.380;9.822;2023-09-12T03:11:11;27.45;;;19.63;;
79212;SDS011;68639;52.380;9.822;2023-09-12T03:13:37;35.75;;;20.85;;
79212;SDS011;68639;52.380;9.822;2023-09-12T03:16:02;33.55;;;19.88;;
79212;SDS011;68639;52.380;9.822;2023-09-12T03:18:27;28.50;;;19.25;;
79212;SDS011;68639;52.380;9.822;2023-09-12T03:20:52;26.73;;;19.15;;
79212;SDS011;68639;52.380;9.822;2023-09-12T03:23:19;27.70;;;19.27;;
79212;SDS011;68639;52.380;9.822;2023-09-12T03:25:44;28.25;;;17.98;;
79212;SDS011;68639;52.380;9.822;2023-09-12T03:28:09;29.52;;;18.77;;
79212;SDS011;68639;52.380;9.822;2023-09-12T03:30:35;26.23;;;18.75;;
79212;SDS011;68639;52.380;9.822;2023-09-12T03:33:00;25.67;;;18.13;;
79212;SDS011;68639;52.380;9.822;2023-09-12T03:35:26;26.30;;;17.90;;
79212;SDS011;68639;52.380;9.822;2023-09-12T03:37:51;24.67;;;17.48;;
79212;SDS011;68639;52.380;9.822;2023-09-12T03:40:16;25.35;;;18.05;;
79212;SDS011;68639;52.380;9.822;2023-09-12T03:42:42;27.92;;;17.25;;
79212;SDS011;68639;52.380;9.822;2023-09-12T03:45:07;29.42;;;18.88;;
79212;SDS011;68639;52.380;9.822;2023-09-12T03:47:32;26.80;;;18.20;;
79212;SDS011;68639;52.380;9.822;2023-09-12T03:49:58;27.07;;;20.20;;
79212;SDS011;68639;52.380;9.822;2023-09-12T03:52:23;22.98;;;19.17;;
79212;SDS011;68639;52.380;9.822;2023-09-12T03:54:48;31.23;;;20.80;;
79212;SDS011;68639;52.380;9.822;2023-09-12T03:57:14;33.70;;;21.47;;
79212;SDS011;68639;52.380;9.822;2023-09-12T03:59:39;33.75;;;21.48;;
79212;SDS011;68639;52.380;9.822;2023-09-12T04:02:04;33.40;;;22.30;;
79212;SDS011;68639;52.380;9.822;2023-09-12T04:04:29;36.35;;;22.65;;
79212;SDS011;68639;52.380;9.822;2023-09-12T04:06:54;34.10;;;24.45;;
79212;SDS011;68639;52.380;9.822;2023-09-12T04:09:20;35.55;;;25.40;;
79212;SDS011;68639;52.380;9.822;2023-09-12T04:11:45;30.02;;;24.25;;
79212;SDS011;68639;52.380;9.822;2023-09-12T04:14:10;32.28;;;23.45;;
79212;SDS011;68639;52.380;9.822;2023-09-12T04:16:36;30.00;;;23.52;;
79212;SDS011;68639;52.380;9.822;2023-09-12T04:19:01;28.88;;;20.80;;
79212;SDS011;68639;52.380;9.822;2023-09-12T04:21:26;32.13;;;21.08;;
79212;SDS011;68639;52.380;9.822;2023-09-12T04:23:51;30.95;;;19.90;;
79212;SDS011;68639;52.380;9.822;2023-09-12T04:26:17;33.00;;;21.83;;
79212;SDS011;68639;52.380;9.822;2023-09-12T04:28:42;26.45;;;19.42;;
79212;SDS011;68639;52.380;9.822;2023-09-12T04:31:08;20.80;;;16.35;;
79212;SDS011;68639;52.380;9.822;2023-09-12T04:33:33;19.52;;;15.13;;
79212;SDS011;68639;52.380;9.822;2023-09-12T04:36:01;21.03;;;12.80;;
79212;SDS011;68639;52.380;9.822;2023-09-12T04:38:27;17.42;;;11.75;;
79212;SDS011;68639;52.380;9.822;2023-09-12T04:40:53;19.20;;;11.30;;
79212;SDS011;68639;52.380;9.822;2023-09-12T04:43:18;16.58;;;10.80;;
79212;SDS011;68639;52.380;9.822;2023-09-12T04:45:43;12.80;;;9.57;;
79212;SDS011;68639;52.380;9.822;2023-09-12T04:48:09;13.37;;;9.43;;
79212;SDS011;68639;52.380;9.822;2023-09-12T04:50:39;14.10;;;9.40;;
79212;SDS011;68639;52.380;9.822;2023-09-12T04:53:05;14.68;;;9.15;;
79212;SDS011;68639;52.380;9.822;2023-09-12T04:55:30;13.67;;;9.13;;
79212;SDS011;68639;52.380;9.822;2023-09-12T04:57:55;17.02;;;9.43;;
79212;SDS011;68639;52.380;9.822;2023-09-12T05:00:20;14.70;;;9.67;;
79212;SDS011;68639;52.380;9.822;2023-09-12T05:02:45;16.85;;;9.60;;
79212;SDS011;68639;52.380;9.822;2023-09-12T05:05:10;16.42;;;9.60;;
79212;SDS011;68639;52.380;9.822;2023-09-12T05:07:36;15.13;;;9.38;;
79212;SDS011;68639;52.380;9.822;2023-09-12T05:10:01;15.73;;;10.85;;
79212;SDS011;68639;52.380;9.822;2023-09-12T05:12:27;17.27;;;10.65;;
79212;SDS011;68639;52.380;9.822;2023-09-12T05:14:52;18.67;;;10.98;;
79212;SDS011;68639;52.380;9.822;2023-09-12T05:17:17;21.03;;;10.37;;
79212;SDS011;68639;52.380;9.822;2023-09-12T05:19:43;16.20;;;10.80;;
79212;SDS011;68639;52.380;9.822;2023-09-12T05:22:08;21.58;;;11.00;;
79212;SDS011;68639;52.380;9.822;2023-09-12T05:24:33;15.52;;;10.57;;
79212;SDS011;68639;52.380;9.822;2023-09-12T05:26:58;16.08;;;10.73;;
79212;SDS011;68639;52.380;9.822;2023-09-12T05:29:24;14.93;;;10.57;;
79212;SDS011;68639;52.380;9.822;2023-09-12T05:31:49;17.15;;;10.73;;
79212;SDS011;68639;52.380;9.822;2023-09-12T05:34:14;15.93;;;9.32;;
79212;SDS011;68639;52.380;9.822;2023-09-12T05:36:39;18.17;;;9.73;;
79212;SDS011;68639;52.380;9.822;2023-09-12T05:39:04;20.40;;;10.00;;
79212;SDS011;68639;52.380;9.822;2023-09-12T05:41:30;13.80;;;9.25;;
79212;SDS011;68639;52.380;9.822;2023-09-12T05:43:55;14.90;;;8.55;;
79212;SDS011;68639;52.380;9.822;2023-09-12T05:46:20;12.05;;;8.85;;
79212;SDS011;68639;52.380;9.822;2023-09-12T05:48:45;11.80;;;8.20;;
79212;SDS011;68639;52.380;9.822;2023-09-12T05:51:10;12.13;;;9.07;;
79212;SDS011;68639;52.380;9.822;2023-09-12T05:53:36;12.52;;;8.90;;
79212;SDS011;68639;52.380;9.822;2023-09-12T05:56:01;13.93;;;8.40;;
79212;SDS011;68639;52.380;9.822;2023-09-12T05:58:27;17.52;;;8.85;;
79212;SDS011;68639;52.380;9.822;2023-09-12T06:00:52;12.43;;;8.00;;
79212;SDS011;68639;52.380;9.822;2023-09-12T06:03:17;12.48;;;7.93;;
79212;SDS011;68639;52.380;9.822;2023-09-12T06:05:42;12.32;;;7.00;;
79212;SDS011;68639;52.380;9.822;2023-09-12T06:08:08;21.23;;;8.63;;
79212;SDS011;68639;52.380;9.822;2023-09-12T06:10:33;28.73;;;10.75;;
79212;SDS011;68639;52.380;9.822;2023-09-12T06:12:59;30.10;;;10.98;;
79212;SDS011;68639;52.380;9.822;2023-09-12T06:15:24;29.23;;;9.88;;
79212;SDS011;68639;52.380;9.822;2023-09-12T06:17:49;16.92;;;9.20;;
79212;SDS011;68639;52.380;9.822;2023-09-12T06:20:14;28.23;;;10.95;;
79212;SDS011;68639;52.380;9.822;2023-09-12T06:22:39;18.73;;;8.68;;
79212;SDS011;68639;52.380;9.822;2023-09-12T06:25:05;24.55;;;9.05;;
79212;SDS011;68639;52.380;9.822;2023-09-12T06:27:31;25.40;;;10.73;;
79212;SDS011;68639;52.380;9.822;2023-09-12T06:29:56;20.17;;;8.32;;
79212;SDS011;68639;52.380;9.822;2023-09-12T06:32:21;13.93;;;8.65;;
79212;SDS011;68639;52.380;9.822;2023-09-12T06:34:47;22.88;;;9.38;;
79212;SDS011;68639;52.380;9.822;2023-09-12T06:37:13;20.15;;;9.77;;
79212;SDS011;68639;52.380;9.822;2023-09-12T06:39:38;18.58;;;9.65;;
79212;SDS011;68639;52.380;9.822;2023-09-12T06:42:03;25.17;;;10.73;;
79212;SDS011;68639;52.380;9.822;2023-09-12T06:44:28;19.15;;;10.60;;
79212;SDS011;68639;52.380;9.822;2023-09-12T06:46:54;17.50;;;9.70;;
79212;SDS011;68639;52.380;9.822;2023-09-12T06:49:19;18.33;;;9.75;;
79212;SDS011;68639;52.380;9.822;2023-09-12T06:51:44;17.38;;;9.55;;
79212;SDS011;68639;52.380;9.822;2023-09-12T06:54:09;15.85;;;7.82;;
79212;SDS011;68639;52.380;9.822;2023-09-12T06:56:34;18.88;;;10.63;;
79212;SDS011;68639;52.380;9.822;2023-09-12T06:59:02;18.73;;;10.38;;
79212;SDS011;68639;52.380;9.822;2023-09-12T07:01:28;18.65;;;11.88;;
79212;SDS011;68639;52.380;9.822;2023-09-12T07:03:53;23.67;;;14.23;;
79212;SDS011;68639;52.380;9.822;2023-09-12T07:06:19;31.27;;;15.60;;
79212;SDS011;68639;52.380;9.822;2023-09-12T07:08:45;27.20;;;16.63;;
79212;SDS011;68639;52.380;9.822;2023-09-12T07:11:10;31.90;;;18.65;;
79212;SDS011;68639;52.380;9.822;2023-09-12T07:13:35;34.50;;;19.57;;
79212;SDS011;68639;52.380;9.822;2023-09-12T07:16:00;24.77;;;16.25;;
79212;SDS011;68639;52.380;9.822;2023-09-12T07:18:29;27.45;;;17.10;;
79212;SDS011;68639;52.380;9.822;2023-09-12T07:20:57;30.33;;;19.65;;
79212;SDS011;68639;52.380;9.822;2023-09-12T07:23:22;36.08;;;22.40;;
79212;SDS011;68639;52.380;9.822;2023-09-12T07:25:47;30.98;;;20.00;;
79212;SDS011;68639;52.380;9.822;2023-09-12T07:28:13;33.77;;;19.87;;
79212;SDS011;68639;52.380;9.822;2023-09-12T07:30:39;33.83;;;20.73;;
79212;SDS011;68639;52.380;9.822;2023-09-12T07:33:05;37.63;;;22.42;;
79212;SDS011;68639;52.380;9.822;2023-09-12T07:35:30;31.83;;;20.58;;
79212;SDS011;68639;52.380;9.822;2023-09-12T07:37:55;24.52;;;16.98;;
79212;SDS011;68639;52.380;9.822;2023-09-12T07:40:20;24.02;;;17.00;;
79212;SDS011;68639;52.380;9.822;2023-09-12T07:42:46;27.30;;;18.10;;
79212;SDS011;68639;52.380;9.822;2023-09-12T07:45:11;20.92;;;14.88;;
79212;SDS011;68639;52.380;9.822;2023-09-12T07:47:36;22.33;;;15.57;;
79212;SDS011;68639;52.380;9.822;2023-09-12T07:50:02;20.33;;;14.48;;
79212;SDS011;68639;52.380;9.822;2023-09-12T07:52:27;20.98;;;13.95;;
79212;SDS011;68639;52.380;9.822;2023-09-12T07:54:58;24.98;;;13.25;;
79212;SDS011;68639;52.380;9.822;2023-09-12T07:57:23;17.92;;;12.48;;
79212;SDS011;68639;52.380;9.822;2023-09-12T07:59:48;15.68;;;11.75;;
79212;SDS011;68639;52.380;9.822;2023-09-12T08:02:14;21.83;;;13.25;;
79212;SDS011;68639;52.380;9.822;2023-09-12T08:04:39;22.38;;;13.43;;
79212;SDS011;68639;52.380;9.822;2023-09-12T08:07:04;20.60;;;13.68;;
79212;SDS011;68639;52.380;9.822;2023-09-12T08:09:47;18.03;;;12.43;;
79212;SDS011;68639;52.380;9.822;2023-09-12T08:12:12;20.58;;;14.48;;
79212;SDS011;68639;52.380;9.822;2023-09-12T08:14:37;24.60;;;16.17;;
79212;SDS011;68639;52.380;9.822;2023-09-12T08:17:03;25.70;;;13.90;;
79212;SDS011;68639;52.380;9.822;2023-09-12T08:19:28;30.65;;;16.30;;
79212;SDS011;68639;52.380;9.822;2023-09-12T08:21:54;20.10;;;15.33;;
79212;SDS011;68639;52.380;9.822;2023-09-12T08:24:19;24.43;;;15.10;;
79212;SDS011;68639;52.380;9.822;2023-09-12T08:26:45;21.27;;;16.30;;
79212;SDS011;68639;52.380;9.822;2023-09-12T08:29:10;24.67;;;16.33;;
79212;SDS011;68639;52.380;9.822;2023-09-12T08:31:35;21.42;;;15.95;;
79212;SDS011;68639;52.380;9.822;2023-09-12T08:34:00;26.97;;;17.73;;
79212;SDS011;68639;52.380;9.822;2023-09-12T08:36:25;30.90;;;18.23;;
79212;SDS011;68639;52.380;9.822;2023-09-12T08:38:51;21.80;;;16.83;;
79212;SDS011;68639;52.380;9.822;2023-09-12T08:41:16;26.20;;;17.05;;
79212;SDS011;68639;52.380;9.822;2023-09-12T08:43:41;23.48;;;15.25;;
79212;SDS011;68639;52.380;9.822;2023-09-12T08:46:06;20.90;;;14.98;;
79212;SDS011;68639;52.380;9.822;2023-09-12T08:48:32;20.60;;;16.05;;
79212;SDS011;68639;52.380;9.822;2023-09-12T08:50:57;20.08;;;15.25;;
79212;SDS011;68639;52.380;9.822;2023-09-12T08:53:22;20.83;;;15.13;;
79212;SDS011;68639;52.380;9.822;2023-09-12T08:55:48;18.80;;;14.98;;
79212;SDS011;68639;52.380;9.822;2023-09-12T08:58:13;21.17;;;14.90;;
79212;SDS011;68639;52.380;9.822;2023-09-12T09:00:38;24.73;;;14.57;;
79212;SDS011;68639;52.380;9.822;2023-09-12T09:03:03;18.35;;;13.85;;
79212;SDS011;68639;52.380;9.822;2023-09-12T09:05:29;25.65;;;16.35;;
79212;SDS011;68639;52.380;9.822;2023-09-12T09:07:54;27.40;;;16.45;;
79212;SDS011;68639;52.380;9.822;2023-09-12T09:10:21;22.88;;;16.08;;
79212;SDS011;68639;52.380;9.822;2023-09-12T09:12:47;23.20;;;15.60;;
79212;SDS011;68639;52.380;9.822;2023-09-12T09:17:47;18.75;;;12.43;;
79212;SDS011;68639;52.380;9.822;2023-09-12T09:20:25;19.88;;;11.20;;
79212;SDS011;68639;52.380;9.822;2023-09-12T09:23:00;12.60;;;8.38;;
79212;SDS011;68639;52.380;9.822;2023-09-12T09:25:26;10.43;;;6.75;;
79212;SDS011;68639;52.380;9.822;2023-09-12T09:27:51;8.80;;;6.28;;
79212;SDS011;68639;52.380;9.822;2023-09-12T09:30:16;6.93;;;4.60;;
79212;SDS011;68639;52.380;9.822;2023-09-12T09:32:43;8.55;;;4.80;;
79212;SDS011;68639;52.380;9.822;2023-09-12T09:35:10;7.47;;;4.70;;
79212;SDS011;68639;52.380;9.822;2023-09-12T09:37:35;7.57;;;5.18;;
79212;SDS011;68639;52.380;9.822;2023-09-12T09:40:00;9.00;;;4.90;;
79212;SDS011;68639;52.380;9.822;2023-09-12T09:42:29;7.47;;;5.20;;
79212;SDS011;68639;52.380;9.822;2023-09-12T09:44:54;9.20;;;5.45;;
79212;SDS011;68639;52.380;9.822;2023-09-12T09:47:19;8.05;;;5.80;;
79212;SDS011;68639;52.380;9.822;2023-09-12T09:49:45;7.45;;;5.03;;
79212;SDS011;68639;52.380;9.822;2023-09-12T09:52:10;8.80;;;5.68;;
79212;SDS011;68639;52.380;9.822;2023-09-12T09:54:35;8.17;;;5.87;;
79212;SDS011;68639;52.380;9.822;2023-09-12T09:57:00;8.50;;;6.35;;
79212;SDS011;68639;52.380;9.822;2023-09-12T09:59:26;9.90;;;5.63;;
79212;SDS011;68639;52.380;9.822;2023-09-12T10:01:55;9.55;;;6.40;;
79212;SDS011;68639;52.380;9.822;2023-09-12T10:04:21;13.25;;;6.38;;
79212;SDS011;68639;52.380;9.822;2023-09-12T10:06:47;9.63;;;6.03;;
79212;SDS011;68639;52.380;9.822;2023-09-12T10:09:14;8.55;;;6.03;;
79212;SDS011;68639;52.380;9.822;2023-09-12T10:11:39;9.82;;;6.75;;
79212;SDS011;68639;52.380;9.822;2023-09-12T10:14:06;7.40;;;6.03;;
79212;SDS011;68639;52.380;9.822;2023-09-12T10:16:35;8.50;;;6.32;;
79212;SDS011;68639;52.380;9.822;2023-09-12T10:19:09;10.02;;;7.10;;
79212;SDS011;68639;52.380;9.822;2023-09-12T10:21:36;9.52;;;7.40;;
79212;SDS011;68639;52.380;9.822;2023-09-12T10:24:11;11.15;;;6.93;;
79212;SDS011;68639;52.380;9.822;2023-09-12T10:26:36;9.07;;;6.93;;
79212;SDS011;68639;52.380;9.822;2023-09-12T10:29:07;9.95;;;6.72;;
79212;SDS011;68639;52.380;9.822;2023-09-12T10:31:32;8.40;;;6.75;;
79212;SDS011;68639;52.380;9.822;2023-09-12T10:33:58;9.73;;;6.97;;
79212;SDS011;68639;52.380;9.822;2023-09-12T10:36:24;11.00;;;7.25;;
79212;SDS011;68639;52.380;9.822;2023-09-12T10:38:50;9.88;;;7.18;;
79212;SDS011;68639;52.380;9.822;2023-09-12T10:41:19;8.73;;;6.00;;
79212;SDS011;68639;52.380;9.822;2023-09-12T10:43:46;10.30;;;6.28;;
79212;SDS011;68639;52.380;9.822;2023-09-12T10:46:15;9.27;;;6.82;;
79212;SDS011;68639;52.380;9.822;2023-09-12T10:48:40;9.60;;;6.82;;
79212;SDS011;68639;52.380;9.822;2023-09-12T10:51:06;10.32;;;6.22;;
79212;SDS011;68639;52.380;9.822;2023-09-12T10:53:32;10.88;;;6.57;;
79212;SDS011;68639;52.380;9.822;2023-09-12T10:56:20;11.93;;;6.55;;
79212;SDS011;68639;52.380;9.822;2023-09-12T11:01:41;11.80;;;7.30;;
79212;SDS011;68639;52.380;9.822;2023-09-12T11:06:44;11.07;;;7.68;;
79212;SDS011;68639;52.380;9.822;2023-09-12T11:09:16;9.25;;;7.50;;
79212;SDS011;68639;52.380;9.822;2023-09-12T11:11:43;9.40;;;7.03;;
79212;SDS011;68639;52.380;9.822;2023-09-12T11:14:09;12.57;;;7.22;;
79212;SDS011;68639;52.380;9.822;2023-09-12T11:16:34;9.70;;;7.80;;
79212;SDS011;68639;52.380;9.822;2023-09-12T11:21:38;13.25;;;8.45;;
79212;SDS011;68639;52.380;9.822;2023-09-12T11:24:04;11.35;;;7.80;;
79212;SDS011;68639;52.380;9.822;2023-09-12T11:26:29;11.68;;;8.20;;
79212;SDS011;68639;52.380;9.822;2023-09-12T11:28:54;10.07;;;7.57;;
79212;SDS011;68639;52.380;9.822;2023-09-12T11:31:26;12.23;;;7.70;;
79212;SDS011;68639;52.380;9.822;2023-09-12T11:33:52;12.15;;;7.75;;
79212;SDS011;68639;52.380;9.822;2023-09-12T11:36:18;12.95;;;8.60;;
79212;SDS011;68639;52.380;9.822;2023-09-12T11:38:43;14.65;;;9.43;;
79212;SDS011;68639;52.380;9.822;2023-09-12T11:41:08;13.90;;;9.00;;
79212;SDS011;68639;52.380;9.822;2023-09-12T11:43:34;17.30;;;10.38;;
79212;SDS011;68639;52.380;9.822;2023-09-12T11:46:03;14.95;;;10.35;;
79212;SDS011;68639;52.380;9.822;2023-09-12T11:48:29;12.57;;;9.02;;
79212;SDS011;68639;52.380;9.822;2023-09-12T11:50:55;19.48;;;9.85;;
79212;SDS011;68639;52.380;9.822;2023-09-12T11:53:22;13.15;;;10.13;;
79212;SDS011;68639;52.380;9.822;2023-09-12T11:55:51;15.02;;;10.43;;
79212;SDS011;68639;52.380;9.822;2023-09-12T11:58:18;13.90;;;9.63;;
79212;SDS011;68639;52.380;9.822;2023-09-12T12:00:44;15.45;;;10.70;;
79212;SDS011;68639;52.380;9.822;2023-09-12T12:03:11;20.67;;;11.40;;
79212;SDS011;68639;52.380;9.822;2023-09-12T12:05:36;17.85;;;11.55;;
79212;SDS011;68639;52.380;9.822;2023-09-12T12:08:02;29.30;;;12.63;;
79212;SDS011;68639;52.380;9.822;2023-09-12T12:10:27;27.65;;;15.10;;
79212;SDS011;68639;52.380;9.822;2023-09-12T12:12:53;24.30;;;14.18;;
79212;SDS011;68639;52.380;9.822;2023-09-12T12:15:19;19.08;;;12.10;;
79212;SDS011;68639;52.380;9.822;2023-09-12T12:17:45;19.42;;;11.15;;
79212;SDS011;68639;52.380;9.822;2023-09-12T12:20:10;17.40;;;10.63;;
79212;SDS011;68639;52.380;9.822;2023-09-12T12:22:39;19.05;;;12.40;;
79212;SDS011;68639;52.380;9.822;2023-09-12T12:25:05;16.20;;;11.73;;
79212;SDS011;68639;52.380;9.822;2023-09-12T12:27:30;21.00;;;13.63;;
79212;SDS011;68639;52.380;9.822;2023-09-12T12:29:56;20.23;;;13.05;;
79212;SDS011;68639;52.380;9.822;2023-09-12T12:32:21;23.43;;;13.20;;
79212;SDS011;68639;52.380;9.822;2023-09-12T12:34:49;14.93;;;11.73;;
79212;SDS011;68639;52.380;9.822;2023-09-12T12:37:14;13.25;;;10.07;;
79212;SDS011;68639;52.380;9.822;2023-09-12T12:39:42;12.32;;;9.27;;
79212;SDS011;68639;52.380;9.822;2023-09-12T12:42:07;11.55;;;9.43;;
79212;SDS011;68639;52.380;9.822;2023-09-12T12:44:33;12.63;;;9.52;;
79212;SDS011;68639;52.380;9.822;2023-09-12T12:47:03;15.60;;;10.27;;
79212;SDS011;68639;52.380;9.822;2023-09-12T12:49:28;13.68;;;9.65;;
79212;SDS011;68639;52.380;9.822;2023-09-12T12:51:53;23.35;;;13.05;;
79212;SDS011;68639;52.380;9.822;2023-09-12T12:54:21;20.10;;;11.48;;
79212;SDS011;68639;52.380;9.822;2023-09-12T12:56:47;18.20;;;12.70;;
79212;SDS011;68639;52.380;9.822;2023-09-12T12:59:12;16.52;;;11.82;;
79212;SDS011;68639;52.380;9.822;2023-09-12T13:01:38;22.02;;;12.70;;
79212;SDS011;68639;52.380;9.822;2023-09-12T13:04:09;22.58;;;12.77;;
79212;SDS011;68639;52.380;9.822;2023-09-12T13:06:35;18.05;;;12.45;;
79212;SDS011;68639;52.380;9.822;2023-09-12T13:09:01;14.02;;;10.18;;
79212;SDS011;68639;52.380;9.822;2023-09-12T13:11:29;14.05;;;10.45;;
79212;SDS011;68639;52.380;9.822;2023-09-12T13:13:55;14.70;;;10.98;;
79212;SDS011;68639;52.380;9.822;2023-09-12T13:16:20;16.27;;;10.80;;
79212;SDS011;68639;52.380;9.822;2023-09-12T13:18:46;13.88;;;9.95;;
79212;SDS011;68639;52.380;9.822;2023-09-12T13:21:11;15.10;;;10.47;;
79212;SDS011;68639;52.380;9.822;2023-09-12T13:23:37;15.65;;;9.52;;
79212;SDS011;68639;52.380;9.822;2023-09-12T13:26:03;13.13;;;9.82;;
79212;SDS011;68639;52.380;9.822;2023-09-12T13:28:28;10.68;;;8.55;;
79212;SDS011;68639;52.380;9.822;2023-09-12T13:30:54;12.93;;;9.10;;
79212;SDS011;68639;52.380;9.822;2023-09-12T13:33:19;11.50;;;8.45;;
79212;SDS011;68639;52.380;9.822;2023-09-12T13:35:44;12.02;;;7.95;;
79212;SDS011;68639;52.380;9.822;2023-09-12T13:38:10;11.35;;;7.00;;
79212;SDS011;68639;52.380;9.822;2023-09-12T13:40:36;10.27;;;7.63;;
79212;SDS011;68639;52.380;9.822;2023-09-12T13:43:01;11.52;;;7.55;;
79212;SDS011;68639;52.380;9.822;2023-09-12T13:45:27;8.68;;;6.05;;
79212;SDS011;68639;52.380;9.822;2023-09-12T13:47:52;9.77;;;6.40;;
79212;SDS011;68639;52.380;9.822;2023-09-12T13:50:20;8.60;;;6.90;;
79212;SDS011;68639;52.380;9.822;2023-09-12T13:52:45;9.32;;;6.15;;
79212;SDS011;68639;52.380;9.822;2023-09-12T13:55:10;10.43;;;5.63;;
79212;SDS011;68639;52.380;9.822;2023-09-12T13:57:38;11.45;;;5.43;;
79212;SDS011;68639;52.380;9.822;2023-09-12T14:00:04;6.18;;;4.30;;
79212;SDS011;68639;52.380;9.822;2023-09-12T14:02:29;9.15;;;4.70;;
79212;SDS011;68639;52.380;9.822;2023-09-12T14:04:54;8.00;;;4.27;;
79212;SDS011;68639;52.380;9.822;2023-09-12T14:07:20;5.93;;;3.78;;
79212;SDS011;68639;52.380;9.822;2023-09-12T14:09:46;7.22;;;4.38;;
79212;SDS011;68639;52.380;9.822;2023-09-12T14:12:14;6.75;;;4.18;;
79212;SDS011;68639;52.380;9.822;2023-09-12T14:14:39;5.93;;;3.60;;
79212;SDS011;68639;52.380;9.822;2023-09-12T14:17:04;5.70;;;3.20;;
79212;SDS011;68639;52.380;9.822;2023-09-12T14:19:30;5.53;;;3.10;;
79212;SDS011;68639;52.380;9.822;2023-09-12T14:21:56;4.43;;;3.30;;
79212;SDS011;68639;52.380;9.822;2023-09-12T14:24:21;6.75;;;3.60;;
79212;SDS011;68639;52.380;9.822;2023-09-12T14:26:46;6.60;;;3.90;;
79212;SDS011;68639;52.380;9.822;2023-09-12T14:29:12;5.78;;;3.60;;
79212;SDS011;68639;52.380;9.822;2023-09-12T14:31:37;5.83;;;3.57;;
79212;SDS011;68639;52.380;9.822;2023-09-12T14:34:03;5.35;;;3.40;;
79212;SDS011;68639;52.380;9.822;2023-09-12T14:36:30;6.20;;;3.13;;
79212;SDS011;68639;52.380;9.822;2023-09-12T14:38:55;5.50;;;3.50;;
79212;SDS011;68639;52.380;9.822;2023-09-12T14:41:20;7.00;;;3.72;;
79212;SDS011;68639;52.380;9.822;2023-09-12T14:43:46;5.90;;;3.70;;
79212;SDS011;68639;52.380;9.822;2023-09-12T14:46:11;5.53;;;3.90;;
79212;SDS011;68639;52.380;9.822;2023-09-12T14:48:37;5.32;;;3.53;;
79212;SDS011;68639;52.380;9.822;2023-09-12T14:51:02;6.82;;;3.88;;
79212;SDS011;68639;52.380;9.822;2023-09-12T14:53:28;8.45;;;3.25;;
79212;SDS011;68639;52.380;9.822;2023-09-12T14:55:53;10.27;;;3.70;;
79212;SDS011;68639;52.380;9.822;2023-09-12T14:58:19;6.50;;;3.88;;
79212;SDS011;68639;52.380;9.822;2023-09-12T15:00:44;4.50;;;3.37;;
79212;SDS011;68639;52.380;9.822;2023-09-12T15:03:09;5.40;;;3.30;;
79212;SDS011;68639;52.380;9.822;2023-09-12T15:05:34;5.67;;;3.20;;
79212;SDS011;68639;52.380;9.822;2023-09-12T15:07:59;6.32;;;3.80;;
79212;SDS011;68639;52.380;9.822;2023-09-12T15:10:24;6.20;;;3.80;;
79212;SDS011;68639;52.380;9.822;2023-09-12T15:12:50;6.47;;;3.73;;
79212;SDS011;68639;52.380;9.822;2023-09-12T15:15:15;4.73;;;3.43;;
79212;SDS011;68639;52.380;9.822;2023-09-12T15:17:40;6.68;;;3.63;;
79212;SDS011;68639;52.380;9.822;2023-09-12T15:20:05;7.43;;;3.80;;
79212;SDS011;68639;52.380;9.822;2023-09-12T15:22:31;8.00;;;3.70;;
79212;SDS011;68639;52.380;9.822;2023-09-12T15:24:57;8.38;;;4.15;;
79212;SDS011;68639;52.380;9.822;2023-09-12T15:27:23;7.93;;;3.90;;
79212;SDS011;68639;52.380;9.822;2023-09-12T15:29:48;7.73;;;3.87;;